Time;durP1;ratioP1;P1;durP2;ratioP2;P2;SDS_P1;SDS_P2;PMS_P1;PMS_P2;Temp;Humidity;BMP_temperature;BMP_pressure;BME280_temperature;BME280_humidity;BME280_pressure;Samples;Min_cycle;Max_cycle;Signal;HPM_P1;HPM_P2
2021/12/08 05:11:30;;;;;;;89.68;31.00;;;;;;;-4.58;100.00;99945.31;5557778;32;340611;-87
2021/12/08 05:14:49;;;;;;;97.60;33.10;;;;;;;-4.60;100.00;99940.09;5548471;32;34038;-86
2021/12/08 05:18:01;;;;;;;81.00;30.70;;;;;;;-4.62;100.00;99945.28;5550165;32;34521;-86
2021/12/08 05:21:30;;;;;;;88.62;31.20;;;;;;;-4.58;100.00;99940.13;5547678;32;34012;-87
2021/12/08 05:24:41;;;;;;;84.25;30.40;;;;;;;-4.56;100.00;99933.22;5555781;32;34097;-87
2021/12/08 05:27:49;;;;;;;71.00;29.23;;;;;;;-4.55;100.00;99929.78;5548189;32;33738;-87
2021/12/08 05:31:04;;;;;;;78.60;29.00;;;;;;;-4.62;100.00;99939.25;5548456;32;33621;-86
2021/12/08 05:34:07;;;;;;;66.28;28.17;;;;;;;-4.67;100.00;99944.38;5547294;32;33951;-87
2021/12/08 05:37:12;;;;;;;72.25;29.48;;;;;;;-4.62;100.00;99940.09;5551730;32;33930;-87
2021/12/08 05:40:23;;;;;;;74.68;30.10;;;;;;;-4.57;100.00;99934.09;5553714;32;34576;-87
2021/12/08 05:43:26;;;;;;;72.37;29.45;;;;;;;-4.54;100.00;99922.00;5547889;32;34111;-87
2021/12/08 05:46:32;;;;;;;74.68;29.90;;;;;;;-4.56;100.00;99918.56;5548687;32;34726;-86
2021/12/08 05:49:35;;;;;;;72.22;30.12;;;;;;;-4.59;100.00;99926.31;5550741;32;33997;-87
2021/12/08 05:52:38;;;;;;;65.65;29.10;;;;;;;-4.62;100.00;99921.97;5547919;32;34179;-86
2021/12/08 05:55:43;;;;;;;65.85;28.83;;;;;;;-4.65;100.00;99919.38;5547267;32;34360;-86
2021/12/08 05:58:49;;;;;;;68.20;27.37;;;;;;;-4.69;100.00;99935.75;5532476;32;35204;-87
2021/12/08 06:02:08;;;;;;;68.68;28.30;;;;;;;-4.71;100.00;99929.72;5529890;32;33849;-87
2021/12/08 06:05:12;;;;;;;62.08;28.00;;;;;;;-4.74;100.00;99924.50;5529086;32;34972;-87
2021/12/08 06:08:16;;;;;;;68.32;27.75;;;;;;;-4.72;100.00;99937.44;5543740;32;33354;-87
2021/12/08 06:11:19;;;;;;;68.30;27.17;;;;;;;-4.70;100.00;99938.31;5545008;32;33970;-87
2021/12/08 06:14:25;;;;;;;70.05;28.38;;;;;;;-4.64;100.00;99939.22;5547077;32;36418;-87
2021/12/08 06:17:30;;;;;;;64.28;25.92;;;;;;;-4.61;100.00;99943.56;5539399;32;34816;-86
2021/12/08 06:20:34;;;;;;;60.33;25.70;;;;;;;-4.61;100.00;99938.38;5546339;32;34903;-88
2021/12/08 06:23:38;;;;;;;68.75;28.65;;;;;;;-4.63;100.00;99940.94;5542802;32;34089;-87
2021/12/08 06:26:41;;;;;;;62.55;26.00;;;;;;;-4.65;100.00;99957.34;5538981;32;33995;-87
2021/12/08 06:29:46;;;;;;;64.82;27.17;;;;;;;-4.66;100.00;99956.50;5525002;32;33619;-87
2021/12/08 06:32:49;;;;;;;60.20;27.08;;;;;;;-4.61;100.00;99957.38;5537189;32;33998;-87
2021/12/08 06:35:59;;;;;;;68.75;28.05;;;;;;;-4.52;100.00;99946.19;5539069;32;35118;-87
2021/12/08 06:39:06;;;;;;;66.82;28.35;;;;;;;-4.44;100.00;99940.19;5537453;32;35063;-87
2021/12/08 06:42:28;;;;;;;70.85;29.83;;;;;;;-4.41;100.00;99943.66;5534441;32;35246;-87
2021/12/08 06:45:35;;;;;;;65.55;29.63;;;;;;;-4.38;100.00;99946.25;5532767;32;33687;-88
2021/12/08 06:48:42;;;;;;;68.50;28.20;;;;;;;-4.35;100.00;99943.69;5533022;32;34460;-87
2021/12/08 06:51:54;;;;;;;71.87;28.20;;;;;;;-4.29;100.00;99947.19;5519700;32;34322;-89
2021/12/08 06:55:19;;;;;;;66.60;27.40;;;;;;;-4.24;100.00;99950.63;5519459;32;33681;-87
2021/12/08 06:58:26;;;;;;;62.00;26.83;;;;;;;-4.05;100.00;99943.81;5518840;32;34179;-87
2021/12/08 07:04:56;;;;;;;61.88;25.12;;;;;;;-3.81;100.00;99940.41;5518179;32;34085;-93
2021/12/08 07:08:07;;;;;;;60.50;26.52;;;;;;;-3.72;100.00;99942.16;5526439;32;33977;-87
2021/12/08 07:11:13;;;;;;;68.40;27.40;;;;;;;-3.65;100.00;99945.63;5526747;32;35460;-86
2021/12/08 07:14:17;;;;;;;67.32;26.85;;;;;;;-3.82;100.00;99941.25;5520824;32;33702;-86
2021/12/08 07:17:24;;;;;;;67.50;27.77;;;;;;;-3.82;100.00;99932.63;5532643;32;34011;-88
2021/12/08 07:23:58;;;;;;;63.45;27.55;;;;;;;-3.73;100.00;99943.00;5532278;32;34633;-89
2021/12/08 07:27:07;;;;;;;62.15;27.75;;;;;;;-3.66;100.00;99942.16;5529876;32;34295;-89
2021/12/08 07:30:15;;;;;;;59.63;26.50;;;;;;;-3.67;100.00;99931.81;5517248;32;33947;-88
2021/12/08 07:33:19;;;;;;;63.40;26.77;;;;;;;-3.56;100.00;99932.66;5525435;32;33547;-89
2021/12/08 07:36:23;;;;;;;66.72;28.85;;;;;;;-3.53;100.00;99940.47;5531401;32;34930;-88
2021/12/08 07:39:32;;;;;;;62.83;28.23;;;;;;;-3.48;100.00;99939.59;5533674;32;32645;-88
2021/12/08 07:42:41;;;;;;;65.37;29.92;;;;;;;-3.44;100.00;99943.91;5520063;32;34668;-86
2021/12/08 07:45:48;;;;;;;72.95;29.58;;;;;;;-3.36;100.00;99939.63;5512367;32;34371;-87
2021/12/08 07:49:07;;;;;;;63.33;28.48;;;;;;;-3.35;100.00;99943.94;5511941;32;34121;-87
2021/12/08 07:52:19;;;;;;;64.47;29.63;;;;;;;-3.23;100.00;99937.03;5518386;32;34356;-87
2021/12/08 07:55:34;;;;;;;70.55;29.90;;;;;;;-3.14;100.00;99947.37;5525518;32;34683;-91
2021/12/08 07:58:39;;;;;;;67.05;29.48;;;;;;;-3.27;100.00;99949.13;5519363;32;34757;-87
2021/12/08 08:01:47;;;;;;;63.35;28.58;;;;;;;-3.06;100.00;99949.97;5518172;32;34544;-87
2021/12/08 08:04:50;;;;;;;65.80;29.08;;;;;;;-2.90;100.00;99945.63;5515394;32;33849;-87
2021/12/08 08:07:57;;;;;;;71.43;31.25;;;;;;;-2.89;100.00;99943.03;5517620;32;34035;-87
2021/12/08 08:11:06;;;;;;;71.45;31.10;;;;;;;-2.88;100.00;99939.56;5521534;32;34660;-87
2021/12/08 08:14:11;;;;;;;62.58;28.75;;;;;;;-2.73;100.00;99946.47;5517374;32;33970;-87
2021/12/08 08:17:18;;;;;;;65.43;29.00;;;;;;;-2.56;100.00;99958.56;5524400;32;35076;-86
2021/12/08 08:20:29;;;;;;;65.82;29.83;;;;;;;-2.49;100.00;99949.88;5526040;32;34009;-88
2021/12/08 08:23:32;;;;;;;63.08;29.87;;;;;;;-2.44;100.00;99945.53;5530304;32;33977;-88
2021/12/08 08:26:38;;;;;;;69.07;31.00;;;;;;;-2.45;100.00;99958.53;5534536;32;34564;-88
2021/12/08 08:29:41;;;;;;;63.97;29.98;;;;;;;-2.38;100.00;99944.66;5514144;32;33891;-88
2021/12/08 08:32:48;;;;;;;63.85;29.98;;;;;;;-2.37;100.00;99953.31;5527070;32;33910;-88
2021/12/08 08:35:54;;;;;;;66.20;29.98;;;;;;;-2.35;100.00;99961.97;5525790;32;34048;-88
2021/12/08 08:39:04;;;;;;;59.25;27.70;;;;;;;-2.20;100.00;99955.84;5529597;32;33997;-88
2021/12/08 08:42:20;;;;;;;66.30;28.50;;;;;;;-2.17;100.00;99956.69;5527276;32;34758;-87
2021/12/08 08:45:26;;;;;;;72.20;29.23;;;;;;;-2.22;100.00;99952.41;5509751;32;33531;-88
2021/12/08 08:48:46;;;;;;;63.40;28.87;;;;;;;-2.06;100.00;99963.59;5510501;32;33628;-88
2021/12/08 08:52:00;;;;;;;62.62;28.05;;;;;;;-2.03;100.00;99960.97;5521972;32;33757;-88
2021/12/08 08:55:10;;;;;;;65.22;28.48;;;;;;;-1.90;100.00;99962.63;5516609;32;34232;-88
2021/12/08 08:58:15;;;;;;;64.28;29.33;;;;;;;-1.88;100.00;99960.03;5530675;32;35050;-92
2021/12/08 09:01:33;;;;;;;66.40;28.85;;;;;;;-1.81;100.00;99968.66;5530086;32;34050;-92
2021/12/08 09:04:42;;;;;;;63.60;29.00;;;;;;;-1.86;100.00;99958.28;5512923;32;34250;-88
2021/12/08 09:07:51;;;;;;;65.30;28.85;;;;;;;-1.81;100.00;99953.91;5514176;32;34056;-87
2021/12/08 09:11:06;;;;;;;63.87;29.73;;;;;;;-1.72;100.00;99946.94;5524199;32;33951;-87
2021/12/08 09:14:17;;;;;;;62.38;29.17;;;;;;;-1.54;100.00;99953.75;5526976;32;33785;-87
2021/12/08 09:17:31;;;;;;;61.58;28.27;;;;;;;-1.27;98.93;99939.69;5513017;32;34757;-87
2021/12/08 09:20:55;;;;;;;65.22;29.58;;;;;;;-1.22;97.78;99943.13;5516936;32;34744;-87
2021/12/08 09:24:17;;;;;;;61.85;27.55;;;;;;;-0.36;94.48;99944.88;5532680;32;34317;-86
2021/12/08 09:27:31;;;;;;;54.58;27.48;;;;;;;4.84;73.32;99922.09;5537855;32;34100;-86
2021/12/08 09:30:41;;;;;;;57.85;27.62;;;;;;;8.49;53.29;99911.81;5540035;32;34704;-87
2021/12/08 09:34:08;;;;;;;56.92;29.15;;;;;;;10.92;46.63;99904.31;5531509;32;36183;-87
2021/12/08 09:37:18;;;;;;;55.60;29.10;;;;;;;11.72;44.00;99902.25;5513758;32;33750;-91
2021/12/08 09:40:32;;;;;;;63.40;32.35;;;;;;;13.56;38.40;99901.00;5514215;32;34099;-86
2021/12/08 09:44:04;;;;;;;62.13;31.92;;;;;;;14.90;35.70;99896.75;5515543;32;33943;-87
2021/12/08 09:47:11;;;;;;;57.17;32.20;;;;;;;15.90;32.62;99887.28;5524032;32;34284;-88
2021/12/08 09:50:15;;;;;;;50.83;29.80;;;;;;;14.53;35.68;99887.84;5523213;32;33934;-88
2021/12/08 09:53:18;;;;;;;52.53;30.33;;;;;;;16.06;31.82;99875.38;5536727;32;34784;-87
2021/12/08 09:56:23;;;;;;;48.33;28.80;;;;;;;13.44;36.40;99879.53;5535868;32;33989;-88
2021/12/08 09:59:26;;;;;;;53.25;30.37;;;;;;;14.71;34.40;99879.41;5533164;32;33683;-88
2021/12/08 10:02:33;;;;;;;52.67;31.25;;;;;;;9.79;41.96;99889.41;5531506;32;33745;-88
2021/12/08 10:05:39;;;;;;;58.92;31.48;;;;;;;9.22;47.12;99883.56;5512189;32;34193;-88
2021/12/08 10:08:44;;;;;;;57.50;32.72;;;;;;;7.39;51.73;99885.19;5517239;32;33903;-88
2021/12/08 10:11:47;;;;;;;56.37;31.73;;;;;;;5.84;56.51;99873.88;5511397;32;34522;-87
2021/12/08 10:14:50;;;;;;;58.85;32.08;;;;;;;5.46;59.99;99867.38;5518328;32;34620;-89
2021/12/08 10:17:56;;;;;;;62.17;32.53;;;;;;;4.38;62.37;99866.66;5532664;32;33204;-88
2021/12/08 10:20:59;;;;;;;58.85;32.63;;;;;;;3.77;65.97;99874.62;5520820;32;33582;-88
2021/12/08 10:24:15;;;;;;;66.20;32.80;;;;;;;3.89;67.30;99873.38;5512463;32;33641;-88
2021/12/08 10:27:18;;;;;;;59.97;31.42;;;;;;;3.91;66.71;99854.97;5523355;32;34278;-88
2021/12/08 10:30:28;;;;;;;66.70;32.72;;;;;;;3.33;68.66;99855.78;5525560;32;34493;-89
2021/12/08 10:33:58;;;;;;;57.40;30.17;;;;;;;3.59;71.19;99856.78;5540091;32;35266;-90
2021/12/08 10:37:09;;;;;;;60.38;30.12;;;;;;;3.70;69.23;99843.34;5537785;32;34051;-89
2021/12/08 10:40:12;;;;;;;57.27;30.67;;;;;;;3.57;69.60;99845.50;5534467;32;34993;-88
2021/12/08 10:43:20;;;;;;;65.87;33.10;;;;;;;3.56;68.65;99843.78;5529416;32;33053;-90
2021/12/08 10:46:33;;;;;;;63.90;33.47;;;;;;;3.73;68.63;99838.03;5541006;32;34297;-89
2021/12/08 10:56:34;;;;;;;65.53;32.83;;;;;;;3.23;70.19;99828.97;5518223;32;35469;-88
2021/12/08 11:00:04;;;;;;;66.85;31.45;;;;;;;3.77;68.03;99824.78;5553042;32;34117;-87
2021/12/08 11:03:11;;;;;;;;;;;;;;;3.52;68.78;99829.88;5546148;32;35234;-87
2021/12/08 11:06:19;;;;;;;60.63;31.08;;;;;;;3.07;69.62;99834.63;5540108;32;34384;-88
2021/12/08 11:09:22;;;;;;;64.43;32.40;;;;;;;3.19;69.96;99816.84;5547414;32;34281;-88
2021/12/08 11:12:40;;;;;;;60.47;31.37;;;;;;;3.34;69.93;99816.41;5540912;32;34501;-87
2021/12/08 11:16:05;;;;;;;59.10;29.27;;;;;;;5.34;61.95;99810.78;5543871;32;34370;-93
2021/12/08 11:19:19;;;;;;;59.38;31.00;;;;;;;4.99;61.69;99805.06;5539220;32;34316;-88
2021/12/08 11:22:30;;;;;;;63.08;31.67;;;;;;;3.49;67.42;99799.38;5545880;32;35300;-88
2021/12/08 11:25:38;;;;;;;59.58;31.12;;;;;;;3.01;70.07;99799.88;5548415;32;34274;-87
2021/12/08 11:28:57;;;;;;;65.60;31.95;;;;;;;3.30;70.12;99796.44;5546109;32;35355;-88
2021/12/08 11:32:05;;;;;;;64.80;32.92;;;;;;;4.48;64.41;99789.25;5555590;32;34285;-88
2021/12/08 11:35:21;;;;;;;63.60;32.40;;;;;;;3.96;65.55;99792.69;5540789;32;33923;-88
2021/12/08 11:38:35;;;;;;;64.78;32.58;;;;;;;3.83;67.01;99797.47;5544627;32;34238;-88
2021/12/08 11:41:47;;;;;;;66.18;33.15;;;;;;;3.14;70.09;99800.38;5538130;32;34175;-89
2021/12/08 11:44:57;;;;;;;70.20;33.95;;;;;;;2.69;71.96;99792.84;5541133;32;34483;-89
2021/12/08 11:48:19;;;;;;;71.07;33.00;;;;;;;2.45;73.91;99793.50;5544746;32;34431;-90
2021/12/08 11:51:22;;;;;;;60.10;30.23;;;;;;;2.61;73.34;99797.41;5555617;32;34060;-89
2021/12/08 11:54:47;;;;;;;62.40;28.92;;;;;;;2.65;73.84;99795.56;5559098;32;34742;-89
2021/12/08 11:57:57;;;;;;;58.63;28.40;;;;;;;2.52;73.48;99788.03;5554820;32;33716;-90
2021/12/08 12:01:02;;;;;;;55.70;27.30;;;;;;;2.45;73.76;99789.09;5548538;32;34006;-89
2021/12/08 12:04:09;;;;;;;58.97;28.38;;;;;;;2.11;74.60;99796.03;5557964;32;34996;-89
2021/12/08 12:07:15;;;;;;;62.33;29.02;;;;;;;2.00;74.36;99783.22;5553634;32;35032;-87
2021/12/08 12:10:23;;;;;;;55.47;27.33;;;;;;;2.12;74.14;99787.28;5562606;32;34255;-89
2021/12/08 12:13:32;;;;;;;59.28;27.77;;;;;;;2.15;74.09;99775.88;5572571;32;35252;-89
2021/12/08 12:16:37;;;;;;;61.50;29.17;;;;;;;2.01;74.86;99778.84;5557994;32;33666;-89
2021/12/08 12:19:47;;;;;;;65.00;29.65;;;;;;;2.00;75.56;99780.59;5556305;32;34305;-89
2021/12/08 12:23:12;;;;;;;65.22;30.85;;;;;;;1.93;76.11;99776.41;5543413;32;36160;-90
2021/12/08 12:30:39;;;;;;;66.85;31.00;;;;;;;1.88;76.71;99776.50;5598962;26;20080;-90
2021/12/08 12:33:51;;;;;;;71.45;30.98;;;;;;;1.94;76.58;99762.44;5517782;32;36362;-90
2021/12/08 12:36:55;;;;;;;65.65;31.00;;;;;;;2.12;76.53;99757.66;5506197;32;34682;-89
2021/12/08 12:40:01;;;;;;;61.67;29.80;;;;;;;2.20;76.28;99763.53;5518387;32;33813;-89
2021/12/08 12:43:07;;;;;;;64.05;29.87;;;;;;;2.16;76.82;99761.88;5514811;32;34958;-90
2021/12/08 12:46:23;;;;;;;60.38;29.42;;;;;;;2.16;76.63;99761.88;5585809;26;35485;-89
2021/12/08 12:49:26;;;;;;;59.55;28.25;;;;;;;2.01;77.37;99753.53;5567737;32;32827;-89
2021/12/08 12:52:37;;;;;;;57.53;28.15;;;;;;;2.02;77.69;99763.09;5546607;32;33868;-89
2021/12/08 12:55:45;;;;;;;54.38;27.25;;;;;;;2.00;78.33;99764.03;5564932;32;36140;-89
2021/12/08 12:58:51;;;;;;;51.88;25.95;;;;;;;1.94;78.61;99751.97;5559404;31;32766;-87
2021/12/08 13:02:07;;;;;;;57.42;25.65;;;;;;;1.86;79.54;99743.47;5566145;32;34236;-88
2021/12/08 13:12:41;;;;;;;44.78;22.80;;;;;;;1.84;79.65;99738.25;5367672;30;20104;-90
2021/12/08 13:15:45;;;;;;;44.50;22.48;;;;;;;1.84;80.08;99734.75;5537440;32;33998;-90
2021/12/08 13:19:00;;;;;;;42.10;21.87;;;;;;;1.90;78.95;99736.41;5533734;32;36005;-89
2021/12/08 13:26:09;;;;;;;42.33;21.85;;;;;;;1.81;78.71;99740.94;3966812;30;19965;-89
2021/12/08 13:29:21;;;;;;;38.58;19.85;;;;;;;1.86;79.18;99738.22;5528695;32;32924;-89
2021/12/08 13:32:44;;;;;;;44.13;21.35;;;;;;;1.82;79.43;99734.78;5524181;32;34557;-87
2021/12/08 13:35:48;;;;;;;45.70;21.55;;;;;;;1.70;80.20;99735.97;5533727;32;34102;-88
2021/12/08 13:38:54;;;;;;;45.42;22.58;;;;;;;1.73;80.46;99735.91;5539318;32;33697;-89
2021/12/08 13:42:15;;;;;;;44.35;21.02;;;;;;;1.77;80.60;99739.31;5538531;32;33672;-88
2021/12/08 13:45:18;;;;;;;;;;;;;;;1.80;80.23;99744.44;5535537;32;33904;-94
2021/12/08 14:22:55;;;;;;;47.17;23.10;;;;;;;1.47;82.66;99742.56;4007474;30;20362;-90
2021/12/08 14:26:29;;;;;;;47.83;21.98;;;;;;;1.31;83.63;99730.75;5515483;32;34262;-90
2021/12/08 14:29:31;;;;;;;45.85;22.48;;;;;;;1.21;84.64;99735.31;5518349;32;35191;-91
2021/12/08 14:32:35;;;;;;;48.42;22.83;;;;;;;1.09;85.09;99746.03;5519463;32;33985;-89
2021/12/08 14:35:39;;;;;;;45.15;22.33;;;;;;;1.02;85.86;99756.59;5516997;32;35091;-90
2021/12/08 14:38:51;;;;;;;42.47;21.98;;;;;;;0.97;86.24;99753.22;5516324;32;35033;-89
2021/12/08 14:42:08;;;;;;;42.38;20.23;;;;;;;0.83;87.14;99755.22;5517623;32;33632;-90
2021/12/08 14:57:55;;;;;;;46.83;21.67;;;;;;;1.17;84.41;99741.50;6650446;26;174309;-90
2021/12/08 15:01:00;;;;;;;41.17;20.42;;;;;;;1.17;84.41;99741.50;6622952;27;33794;-91
2021/12/08 15:04:06;;;;;;;36.35;18.48;;;;;;;0.68;85.65;99733.75;6620737;27;35214;-90
2021/12/08 15:07:10;;;;;;;35.85;18.55;;;;;;;0.70;86.09;99737.19;6613815;27;33949;-88
2021/12/08 15:10:23;;;;;;;37.83;18.75;;;;;;;0.59;85.97;99733.91;6613736;27;34643;-88
2021/12/08 15:13:33;;;;;;;40.08;18.92;;;;;;;0.50;86.59;99727.97;6613305;27;33771;-87
2021/12/08 15:16:36;;;;;;;40.35;18.92;;;;;;;0.35;87.22;99728.28;6614256;27;33886;-90
2021/12/08 15:19:52;;;;;;;40.42;18.90;;;;;;;0.23;87.68;99726.75;6614006;26;33599;-89
2021/12/08 15:22:58;;;;;;;36.22;18.60;;;;;;;0.16;88.19;99733.81;6614392;27;33705;-89
2021/12/08 15:26:07;;;;;;;38.17;18.85;;;;;;;0.12;88.45;99735.63;6616470;27;33936;-89
2021/12/08 15:29:38;;;;;;;39.63;17.98;;;;;;;0.09;88.31;99729.56;6625230;27;33861;-89
2021/12/08 15:32:59;;;;;;;39.25;18.80;;;;;;;0.09;88.32;99734.78;6623097;26;34834;-90
2021/12/08 15:43:32;;;;;;;35.88;18.73;;;;;;;-0.05;89.17;99740.25;6610584;26;20068;-88
2021/12/08 15:46:36;;;;;;;35.83;18.50;;;;;;;-0.05;89.59;99748.94;6619792;26;34552;-90
2021/12/08 15:49:40;;;;;;;35.47;19.33;;;;;;;0.06;89.18;99745.28;6624888;26;33941;-88
2021/12/08 15:52:43;;;;;;;39.10;19.10;;;;;;;-0.17;90.37;99738.69;6631817;26;34300;-87
2021/12/08 15:55:53;;;;;;;41.53;18.75;;;;;;;-0.27;91.32;99735.38;6600765;27;34360;-88
2021/12/08 15:59:03;;;;;;;40.28;20.77;;;;;;;-0.33;92.12;99727.66;6614635;26;35225;-88
2021/12/08 16:02:19;;;;;;;44.03;20.35;;;;;;;-0.38;93.06;99726.84;6622352;26;35044;-88
2021/12/08 16:05:22;;;;;;;45.65;20.05;;;;;;;-0.35;92.97;99743.28;6618589;27;35225;-89
2021/12/08 16:08:30;;;;;;;41.47;20.50;;;;;;;-0.41;93.71;99740.78;6613472;27;35010;-89
2021/12/08 16:11:44;;;;;;;44.47;21.02;;;;;;;-0.46;94.40;99740.84;6607664;27;34796;-89
2021/12/08 16:14:54;;;;;;;44.30;21.52;;;;;;;-0.46;94.46;99745.22;6610449;27;33935;-89
2021/12/08 16:18:00;;;;;;;50.78;20.15;;;;;;;-0.57;95.42;99740.16;6609684;27;34039;-89
2021/12/08 16:21:03;;;;;;;44.47;21.25;;;;;;;-0.59;95.68;99729.78;6607339;27;34122;-89
2021/12/08 16:24:07;;;;;;;42.42;21.12;;;;;;;-0.61;95.76;99734.13;6607675;27;33893;-88
2021/12/08 16:27:17;;;;;;;49.42;22.20;;;;;;;-0.74;96.60;99736.06;6606680;27;34685;-88
2021/12/08 16:30:20;;;;;;;44.13;20.33;;;;;;;-0.68;96.45;99741.19;6608087;27;34642;-88
2021/12/08 16:33:23;;;;;;;47.40;22.35;;;;;;;-0.72;96.82;99741.22;6607127;27;33759;-89
2021/12/08 16:36:26;;;;;;;48.60;21.85;;;;;;;-0.73;96.94;99752.53;6607660;27;34545;-87
2021/12/08 16:39:41;;;;;;;52.65;21.40;;;;;;;-0.88;97.65;99750.97;6606871;27;34300;-87
2021/12/08 16:46:06;;;;;;;45.80;21.58;;;;;;;-0.94;97.95;99759.75;6607261;27;34545;-88
2021/12/08 16:49:09;;;;;;;46.63;21.75;;;;;;;-1.08;99.01;99770.31;6606921;27;34258;-88
2021/12/08 16:52:12;;;;;;;45.55;21.33;;;;;;;-1.11;99.67;99767.75;6606947;27;34552;-88
